Terminal Aerodrome Forecast
Issued by NWS Cleveland, OH

Home | Current Version | Previous Version | Graphics & Text | Print | Product List | Glossary On
Versions: 1 2 3 4 5 6 7 8 9 10 11 12 13 14 15 16 17 18 19 20
000
FTUS41 KCLE 250500
TAFCAK
TAF
KCAK 250522Z 2506/2606 24012G20KT P6SM -SN OVC035
      TEMPO 2506/2510 3SM -SHSN OVC025
     FM251000 26010KT 6SM -SN BKN025 OVC040
     FM251600 32007KT P6SM BKN250
     FM260500 03006KT P6SM BKN110=

USA.gov is the U.S. government's official web portal to all federal, state and local government web resources and services.